createdAt,value
2023-05-15T00:00:46.855Z,32.05
2023-05-15T00:01:46.846Z,32.07
2023-05-15T00:02:46.958Z,32.07
2023-05-15T00:03:46.844Z,32.07
2023-05-15T00:04:46.800Z,32.07
2023-05-15T00:05:46.756Z,32.07
2023-05-15T00:06:46.729Z,32.10
2023-05-15T00:07:46.717Z,32.09
2023-05-15T00:08:46.697Z,32.10
2023-05-15T00:09:46.673Z,32.11
2023-05-15T00:10:54.106Z,32.11
2023-05-15T00:11:47.631Z,32.10
2023-05-15T00:12:46.602Z,32.10
2023-05-15T00:13:46.587Z,32.09
2023-05-15T00:14:46.564Z,32.08
2023-05-15T00:15:46.605Z,32.10
2023-05-15T00:16:46.514Z,32.12
2023-05-15T00:17:46.542Z,32.11
2023-05-15T00:18:46.492Z,32.10
2023-05-15T00:19:46.464Z,32.11
2023-05-15T00:20:46.450Z,32.12
2023-05-15T00:21:46.432Z,32.11
2023-05-15T00:22:46.428Z,32.14
2023-05-15T00:23:46.409Z,32.13
2023-05-15T00:24:46.390Z,32.11
2023-05-15T00:25:46.382Z,32.12
2023-05-15T00:26:46.354Z,32.10
2023-05-15T00:27:46.356Z,32.10
2023-05-15T00:28:46.329Z,32.10
2023-05-15T00:29:46.321Z,32.11
2023-05-15T00:30:46.315Z,32.12
2023-05-15T00:31:46.345Z,32.13
2023-05-15T00:32:46.274Z,32.13
2023-05-15T00:33:46.260Z,32.13
2023-05-15T00:34:46.250Z,32.13
2023-05-15T00:35:46.246Z,32.14
2023-05-15T00:36:46.203Z,32.12
2023-05-15T00:37:46.195Z,32.14
2023-05-15T00:38:46.169Z,32.12
2023-05-15T00:39:46.167Z,32.14
2023-05-15T00:40:46.265Z,32.14
2023-05-15T00:41:46.147Z,32.13
2023-05-15T00:42:46.112Z,32.12
2023-05-15T00:43:46.099Z,32.12
2023-05-15T00:44:46.082Z,32.12
2023-05-15T00:45:46.073Z,32.14
2023-05-15T00:46:46.105Z,32.15
2023-05-15T00:47:46.136Z,32.15
2023-05-15T00:48:46.058Z,32.15
2023-05-15T00:49:46.049Z,32.16
2023-05-15T00:50:46.026Z,32.16
2023-05-15T00:51:46.024Z,32.16
2023-05-15T00:52:45.991Z,32.16
2023-05-15T00:53:46.061Z,32.15
2023-05-15T00:54:45.948Z,32.15
2023-05-15T00:55:45.927Z,32.16
2023-05-15T00:56:45.895Z,32.14
2023-05-15T00:57:45.924Z,32.13
2023-05-15T00:58:45.871Z,32.18
2023-05-15T00:59:45.863Z,32.13
2023-05-15T01:00:45.882Z,32.18
2023-05-15T01:01:45.833Z,32.16
2023-05-15T01:02:45.884Z,32.17
2023-05-15T01:03:45.801Z,32.17
2023-05-15T01:04:45.789Z,32.16
2023-05-15T01:05:45.780Z,32.15
2023-05-15T01:06:45.748Z,32.20
2023-05-15T01:07:45.739Z,32.17
2023-05-15T01:08:45.710Z,32.16
2023-05-15T01:09:45.705Z,32.20
2023-05-15T01:10:45.684Z,32.18
2023-05-15T01:11:45.679Z,32.20
2023-05-15T01:12:45.648Z,32.20
2023-05-15T01:13:45.635Z,32.18
2023-05-15T01:14:45.649Z,32.18
2023-05-15T01:15:45.614Z,32.18
2023-05-15T01:16:45.584Z,32.18
2023-05-15T01:17:45.610Z,32.17
2023-05-15T01:18:45.628Z,32.17
2023-05-15T01:19:45.612Z,32.17
2023-05-15T01:20:45.523Z,32.19
2023-05-15T01:21:45.559Z,32.20
2023-05-15T01:22:45.551Z,32.23
2023-05-15T01:23:45.560Z,32.19
2023-05-15T01:24:45.568Z,32.19
2023-05-15T01:25:45.576Z,32.20
2023-05-15T01:26:45.597Z,32.21
2023-05-15T01:27:45.589Z,32.20
2023-05-15T01:28:45.581Z,32.17
2023-05-15T01:29:45.611Z,32.21
2023-05-15T01:30:45.603Z,32.18
2023-05-15T01:31:45.641Z,32.21
2023-05-15T01:32:45.728Z,32.21
2023-05-15T01:33:45.638Z,32.20
2023-05-15T01:34:45.647Z,32.22
2023-05-15T01:35:45.664Z,32.22
2023-05-15T01:36:45.652Z,32.23
2023-05-15T01:37:45.672Z,32.23
2023-05-15T01:38:45.680Z,32.21
2023-05-15T01:39:45.694Z,32.21
2023-05-15T01:40:45.694Z,32.22
2023-05-15T01:41:45.703Z,32.24
2023-05-15T01:42:45.717Z,32.23
2023-05-15T01:43:45.754Z,32.23
2023-05-15T01:44:45.736Z,32.24
2023-05-15T01:45:45.762Z,32.22
2023-05-15T01:46:45.948Z,32.22
2023-05-15T01:47:45.804Z,32.21
2023-05-15T01:48:45.769Z,32.22
2023-05-15T01:49:45.775Z,32.23
2023-05-15T01:50:45.763Z,32.23
2023-05-15T01:51:45.752Z,32.24
2023-05-15T01:52:45.738Z,32.23
2023-05-15T01:53:45.757Z,32.24
2023-05-15T01:54:45.751Z,32.24
2023-05-15T01:55:45.751Z,32.23
2023-05-15T01:56:45.758Z,32.23
2023-05-15T01:57:45.756Z,32.23
2023-05-15T01:58:45.754Z,32.24
2023-05-15T01:59:45.761Z,32.25
2023-05-15T02:00:45.783Z,32.23
2023-05-15T02:01:45.816Z,32.22
2023-05-15T02:02:45.960Z,32.25
2023-05-15T02:03:45.937Z,32.24
2023-05-15T02:04:45.819Z,32.27
2023-05-15T02:05:45.831Z,32.25
2023-05-15T02:06:45.846Z,32.24
2023-05-15T02:07:45.840Z,32.25
2023-05-15T02:08:45.843Z,32.25
2023-05-15T02:09:45.858Z,32.26
2023-05-15T02:10:45.867Z,32.27
2023-05-15T02:11:45.869Z,32.25
2023-05-15T02:12:45.857Z,32.25
2023-05-15T02:13:45.876Z,32.26
2023-05-15T02:14:45.869Z,32.28
2023-05-15T02:15:45.874Z,32.27
2023-05-15T02:16:46.062Z,32.27
2023-05-15T02:17:45.882Z,32.26
2023-05-15T02:18:45.850Z,32.27
2023-05-15T02:19:45.799Z,32.28
2023-05-15T02:20:45.802Z,32.29
2023-05-15T02:21:45.754Z,32.27
2023-05-15T02:22:45.734Z,32.29
2023-05-15T02:23:45.706Z,32.26
2023-05-15T02:24:45.688Z,32.27
2023-05-15T02:25:45.656Z,32.28
2023-05-15T02:26:45.665Z,32.26
2023-05-15T02:27:45.636Z,32.30
2023-05-15T02:28:45.609Z,32.27
2023-05-15T02:29:45.597Z,32.29
2023-05-15T02:30:45.563Z,32.30
2023-05-15T02:31:45.598Z,32.30
2023-05-15T02:32:45.555Z,32.28
2023-05-15T02:33:45.497Z,32.27
2023-05-15T02:34:45.477Z,32.28
2023-05-15T02:35:45.464Z,32.29
2023-05-15T02:36:45.445Z,32.27
2023-05-15T02:37:45.418Z,32.26
2023-05-15T02:38:45.408Z,32.27
2023-05-15T02:39:45.367Z,32.30
2023-05-15T02:40:45.359Z,32.29
2023-05-15T02:41:45.327Z,32.28
2023-05-15T02:42:45.305Z,32.31
2023-05-15T02:43:45.276Z,32.29
2023-05-15T02:44:45.259Z,32.31
2023-05-15T02:45:45.251Z,32.28
2023-05-15T02:46:45.212Z,32.31
2023-05-15T02:47:45.226Z,32.29
2023-05-15T02:48:45.179Z,32.29
2023-05-15T02:49:45.151Z,32.30
2023-05-15T02:50:45.130Z,32.28
2023-05-15T02:51:45.114Z,32.30
2023-05-15T02:52:45.083Z,32.30
2023-05-15T02:53:45.104Z,32.30
2023-05-15T02:54:45.076Z,32.31
2023-05-15T02:55:45.047Z,32.29
2023-05-15T02:56:45.035Z,32.30
2023-05-15T02:57:45.008Z,32.31
2023-05-15T02:58:44.995Z,32.29
2023-05-15T02:59:44.975Z,32.31
2023-05-15T03:00:44.956Z,32.01
2023-05-15T03:01:44.996Z,31.72
2023-05-15T03:02:44.966Z,31.65
2023-05-15T03:03:44.979Z,31.42
2023-05-15T03:04:44.932Z,31.35
2023-05-15T03:05:44.887Z,31.38
2023-05-15T03:06:44.879Z,31.43
2023-05-15T03:07:44.872Z,31.44
2023-05-15T03:08:44.868Z,31.53
2023-05-15T03:09:44.950Z,31.57
2023-05-15T03:10:44.884Z,31.58
2023-05-15T03:11:44.915Z,31.65
2023-05-15T03:12:44.915Z,31.65
2023-05-15T03:13:44.894Z,31.68
2023-05-15T03:14:44.895Z,31.68
2023-05-15T03:15:44.887Z,31.69
2023-05-15T03:16:44.907Z,31.72
2023-05-15T03:17:44.960Z,31.71
2023-05-15T03:18:44.873Z,31.75
2023-05-15T03:19:44.840Z,31.78
2023-05-15T03:20:44.835Z,31.77
2023-05-15T03:21:44.833Z,31.80
2023-05-15T03:22:44.821Z,31.82
2023-05-15T03:23:44.824Z,31.87
2023-05-15T03:24:44.814Z,31.81
2023-05-15T03:25:44.812Z,31.81
2023-05-15T03:26:44.800Z,31.91
2023-05-15T03:27:44.785Z,31.87
2023-05-15T03:28:44.772Z,31.82
2023-05-15T03:29:44.779Z,31.88
2023-05-15T03:30:44.756Z,31.84
2023-05-15T03:31:44.854Z,31.83
2023-05-15T03:32:44.825Z,31.88
2023-05-15T03:33:44.721Z,31.85
2023-05-15T03:34:44.771Z,31.86
2023-05-15T03:35:44.817Z,31.87
2023-05-15T03:36:44.889Z,31.91
2023-05-15T03:37:44.944Z,31.89
2023-05-15T03:38:45.012Z,31.90
2023-05-15T03:39:45.068Z,31.87
2023-05-15T03:40:45.127Z,31.93
2023-05-15T03:41:45.196Z,31.91
2023-05-15T03:42:45.248Z,31.92
2023-05-15T03:43:45.311Z,31.92
2023-05-15T03:44:45.372Z,31.90
2023-05-15T03:45:45.485Z,31.93
2023-05-15T03:46:45.564Z,31.92
2023-05-15T03:47:45.613Z,31.95
2023-05-15T03:48:45.623Z,31.97
2023-05-15T03:49:45.690Z,31.94
2023-05-15T03:50:45.751Z,31.98
2023-05-15T03:51:45.819Z,31.96
2023-05-15T03:52:45.885Z,31.97
2023-05-15T03:53:45.950Z,31.96
2023-05-15T03:54:46.015Z,31.96
2023-05-15T03:55:46.081Z,31.97
2023-05-15T03:56:46.149Z,32.03
2023-05-15T03:57:46.214Z,32.06
2023-05-15T03:58:46.278Z,32.09
2023-05-15T03:59:46.348Z,32.04
2023-05-15T04:00:46.390Z,32.00
2023-05-15T04:02:02.935Z,32.06
2023-05-15T04:02:47.575Z,32.06
2023-05-15T04:03:46.440Z,32.03
2023-05-15T04:04:46.498Z,32.01
2023-05-15T04:05:46.442Z,31.97
2023-05-15T04:06:46.449Z,32.01
2023-05-15T04:07:46.451Z,32.02
2023-05-15T04:08:46.445Z,32.05
2023-05-15T04:09:46.444Z,32.03
2023-05-15T04:10:46.450Z,32.05
2023-05-15T04:11:46.442Z,32.04
2023-05-15T04:12:46.442Z,32.04
2023-05-15T04:13:46.438Z,32.03
2023-05-15T04:14:46.457Z,32.00
2023-05-15T04:15:46.489Z,31.97
2023-05-15T04:16:46.601Z,31.93
2023-05-15T04:17:46.537Z,31.96
2023-05-15T04:18:46.635Z,31.97
2023-05-15T04:19:46.589Z,32.00
2023-05-15T04:20:46.597Z,32.02
2023-05-15T04:21:46.594Z,32.01
2023-05-15T04:22:46.597Z,32.05
2023-05-15T04:23:46.582Z,32.03
2023-05-15T04:24:46.599Z,32.04
2023-05-15T04:25:46.603Z,32.06
2023-05-15T04:26:46.633Z,32.06
2023-05-15T04:27:46.578Z,32.08
2023-05-15T04:28:56.242Z,32.06
2023-05-15T04:29:47.574Z,32.12
2023-05-15T04:30:46.582Z,32.17
2023-05-15T04:31:46.657Z,32.15
2023-05-15T04:32:46.629Z,32.19
2023-05-15T04:33:46.856Z,32.23
2023-05-15T04:34:46.598Z,32.22
2023-05-15T04:35:46.584Z,32.20
2023-05-15T04:36:46.591Z,32.24
2023-05-15T04:37:46.586Z,32.26
2023-05-15T04:38:46.591Z,32.23
2023-05-15T04:39:46.599Z,32.23
2023-05-15T04:40:46.594Z,32.18
2023-05-15T04:41:46.598Z,32.20
2023-05-15T04:42:46.621Z,32.20
2023-05-15T04:43:46.652Z,32.17
2023-05-15T04:44:46.667Z,32.18
2023-05-15T04:45:46.733Z,32.18
2023-05-15T04:46:46.690Z,32.17
2023-05-15T04:47:46.721Z,32.18
2023-05-15T04:48:46.688Z,32.22
2023-05-15T04:49:46.705Z,32.22
2023-05-15T04:50:46.709Z,32.22
2023-05-15T04:51:46.709Z,32.20
2023-05-15T04:52:46.704Z,32.23
2023-05-15T04:53:46.714Z,32.25
2023-05-15T04:54:46.716Z,32.28
2023-05-15T04:55:46.711Z,32.27
2023-05-15T04:56:46.720Z,32.25
2023-05-15T04:57:46.724Z,32.28
2023-05-15T04:58:46.716Z,32.32
2023-05-15T04:59:46.733Z,32.37
2023-05-15T05:00:46.728Z,32.37
2023-05-15T05:01:46.769Z,32.35
2023-05-15T05:02:46.757Z,32.76
2023-05-15T05:03:46.796Z,32.99
2023-05-15T05:04:46.699Z,32.69
2023-05-15T05:05:46.692Z,33.06
2023-05-15T05:06:46.689Z,33.37
2023-05-15T05:07:46.680Z,33.42
2023-05-15T05:08:46.676Z,33.39
2023-05-15T05:09:46.673Z,33.18
2023-05-15T05:10:46.677Z,32.99
2023-05-15T05:11:46.660Z,32.84
2023-05-15T05:12:46.809Z,32.72
2023-05-15T05:13:46.700Z,32.66
2023-05-15T05:14:46.755Z,32.60
2023-05-15T05:15:46.868Z,32.60
2023-05-15T05:16:46.833Z,32.56
2023-05-15T05:17:46.936Z,32.55
2023-05-15T05:18:46.900Z,32.51
2023-05-15T05:19:46.865Z,32.46
2023-05-15T05:20:46.869Z,32.44
2023-05-15T05:21:46.858Z,32.40
2023-05-15T05:22:46.851Z,32.39
2023-05-15T05:23:46.826Z,32.34
2023-05-15T05:24:46.810Z,32.36
2023-05-15T05:25:46.807Z,32.36
2023-05-15T05:26:46.807Z,32.33
2023-05-15T05:27:46.782Z,32.29
2023-05-15T05:28:46.782Z,32.29
2023-05-15T05:29:46.760Z,32.26
2023-05-15T05:30:46.770Z,32.33
2023-05-15T05:31:46.997Z,32.30
2023-05-15T05:32:46.843Z,32.35
2023-05-15T05:33:46.728Z,32.37
2023-05-15T05:34:46.724Z,32.20
2023-05-15T05:35:46.705Z,32.26
2023-05-15T05:36:46.694Z,32.52
2023-05-15T05:37:46.697Z,32.66
2023-05-15T05:38:46.681Z,32.87
2023-05-15T05:39:46.699Z,33.00
2023-05-15T05:40:46.736Z,33.09
2023-05-15T05:41:46.813Z,33.32
2023-05-15T05:42:46.824Z,33.51
2023-05-15T05:43:46.873Z,33.80
2023-05-15T05:44:46.930Z,33.30
2023-05-15T05:45:46.972Z,33.11
2023-05-15T05:46:47.077Z,32.90
2023-05-15T05:47:47.072Z,33.01
2023-05-15T05:48:47.119Z,33.22
2023-05-15T05:49:47.105Z,33.22
2023-05-15T05:50:47.092Z,33.32
2023-05-15T05:51:47.095Z,33.68
2023-05-15T05:52:47.072Z,33.96
2023-05-15T05:53:47.061Z,34.03
2023-05-15T05:54:47.039Z,34.08
2023-05-15T05:55:47.028Z,34.08
2023-05-15T05:56:47.026Z,34.09
2023-05-15T05:57:46.996Z,34.11
2023-05-15T05:58:46.973Z,34.13
2023-05-15T05:59:46.987Z,34.13
2023-05-15T06:00:46.936Z,34.13
2023-05-15T06:01:47.004Z,34.11
2023-05-15T06:02:47.028Z,34.10
2023-05-15T06:03:47.040Z,34.08
2023-05-15T06:04:46.914Z,34.00
2023-05-15T06:05:46.919Z,33.96
2023-05-15T06:06:46.934Z,33.98
2023-05-15T06:07:46.928Z,33.98
2023-05-15T06:08:46.924Z,33.91
2023-05-15T06:09:46.951Z,33.92
2023-05-15T06:10:46.935Z,34.00
2023-05-15T06:11:46.991Z,33.90
2023-05-15T06:12:46.951Z,33.94
2023-05-15T06:13:46.963Z,33.90
2023-05-15T06:14:46.938Z,33.88
2023-05-15T06:15:46.913Z,33.80
2023-05-15T06:16:46.906Z,33.76
2023-05-15T06:17:46.947Z,33.72
2023-05-15T06:18:46.853Z,33.71
2023-05-15T06:19:46.867Z,33.66
2023-05-15T06:20:46.813Z,33.67
2023-05-15T06:21:46.776Z,33.59
2023-05-15T06:22:46.762Z,33.60
2023-05-15T06:23:46.733Z,33.60
2023-05-15T06:24:46.725Z,33.56
2023-05-15T06:25:46.710Z,33.52
2023-05-15T06:26:46.714Z,33.48
2023-05-15T06:27:46.672Z,33.47
2023-05-15T06:28:46.645Z,33.42
2023-05-15T06:29:46.641Z,33.40
2023-05-15T06:30:46.640Z,33.37
2023-05-15T06:31:46.591Z,33.35
2023-05-15T06:32:46.589Z,33.38
2023-05-15T06:33:46.546Z,33.36
2023-05-15T06:34:46.520Z,33.33
2023-05-15T06:35:46.515Z,33.23
2023-05-15T06:36:46.492Z,33.21
2023-05-15T06:37:46.479Z,33.19
2023-05-15T06:38:46.464Z,33.16
2023-05-15T06:39:46.444Z,33.12
2023-05-15T06:40:46.421Z,33.12
2023-05-15T06:41:46.421Z,33.11
2023-05-15T06:42:46.395Z,33.13
2023-05-15T06:43:46.369Z,33.25
2023-05-15T06:44:46.355Z,33.42
2023-05-15T06:45:46.396Z,33.57
2023-05-15T06:46:46.455Z,33.44
2023-05-15T06:47:46.370Z,33.62
2023-05-15T06:48:46.247Z,33.56
2023-05-15T06:49:46.233Z,33.55
2023-05-15T06:50:46.208Z,33.76
2023-05-15T06:51:46.168Z,33.53
2023-05-15T06:52:46.140Z,33.44
2023-05-15T06:53:46.122Z,33.38
2023-05-15T06:54:46.086Z,33.33
2023-05-15T06:55:46.071Z,33.38
2023-05-15T06:56:46.048Z,33.22
2023-05-15T06:57:46.018Z,33.08
2023-05-15T06:58:45.977Z,33.08
2023-05-15T06:59:45.954Z,32.94
2023-05-15T07:00:45.912Z,32.87
2023-05-15T07:01:45.937Z,32.89
2023-05-15T07:02:45.898Z,32.76
2023-05-15T07:03:45.822Z,32.78
2023-05-15T07:04:45.989Z,32.76
2023-05-15T07:05:45.759Z,32.71
2023-05-15T07:06:45.723Z,32.72
2023-05-15T07:07:45.712Z,32.67
2023-05-15T07:08:45.676Z,32.68
2023-05-15T07:09:45.657Z,32.59
2023-05-15T07:10:45.624Z,32.53
2023-05-15T07:11:45.617Z,32.52
2023-05-15T07:12:45.592Z,32.47
2023-05-15T07:13:45.557Z,32.41
2023-05-15T07:14:45.528Z,32.33
2023-05-15T07:15:45.518Z,32.35
2023-05-15T07:16:45.513Z,32.20
2023-05-15T07:17:45.584Z,32.25
2023-05-15T07:18:45.611Z,32.21
2023-05-15T07:19:45.603Z,32.24
2023-05-15T07:20:45.759Z,32.23
2023-05-15T07:21:45.610Z,32.24
2023-05-15T07:22:55.728Z,32.19
2023-05-15T07:23:46.604Z,32.19
2023-05-15T07:24:45.579Z,32.16
2023-05-15T07:25:46.168Z,32.23
2023-05-15T07:26:57.580Z,32.25
2023-05-15T07:27:46.505Z,32.21
2023-05-15T07:28:45.467Z,32.21
2023-05-15T07:29:45.446Z,32.23
2023-05-15T07:30:45.429Z,32.27
2023-05-15T07:31:45.431Z,32.33
2023-05-15T07:32:45.402Z,32.37
2023-05-15T07:33:45.350Z,32.44
2023-05-15T07:34:45.359Z,32.39
2023-05-15T07:35:45.306Z,32.32
2023-05-15T07:36:45.309Z,32.35
2023-05-15T07:37:45.277Z,32.39
2023-05-15T07:38:45.234Z,32.54
2023-05-15T07:39:45.243Z,32.48
2023-05-15T07:40:45.197Z,32.42
2023-05-15T07:41:45.173Z,32.43
2023-05-15T07:42:45.187Z,32.31
2023-05-15T07:43:45.128Z,32.30
2023-05-15T07:44:47.847Z,31.51
2023-05-15T07:45:45.153Z,30.84
2023-05-15T07:46:45.111Z,30.70
2023-05-15T07:47:45.073Z,30.71
2023-05-15T07:48:45.008Z,30.78
2023-05-15T07:49:44.991Z,30.69
2023-05-15T07:50:44.967Z,30.82
2023-05-15T07:51:44.958Z,31.12
2023-05-15T07:52:44.991Z,31.16
2023-05-15T07:53:44.905Z,31.41
2023-05-15T07:54:44.893Z,31.37
2023-05-15T07:55:44.862Z,31.10
2023-05-15T07:56:44.837Z,31.09
2023-05-15T07:57:44.815Z,30.95
2023-05-15T07:58:44.842Z,31.16
2023-05-15T07:59:44.776Z,30.89
2023-05-15T08:00:44.769Z,30.89
2023-05-15T08:01:44.746Z,30.71
2023-05-15T08:02:44.826Z,30.91
2023-05-15T08:03:44.811Z,30.92
2023-05-15T08:04:44.821Z,31.15
2023-05-15T08:05:44.667Z,31.42
2023-05-15T08:06:44.707Z,31.65
2023-05-15T08:07:44.667Z,31.79
2023-05-15T08:08:44.650Z,31.84
2023-05-15T08:09:44.598Z,31.85
2023-05-15T08:10:44.574Z,31.92
2023-05-15T08:11:44.544Z,32.04
2023-05-15T08:12:44.547Z,32.04
2023-05-15T08:13:44.562Z,32.05
2023-05-15T08:14:44.540Z,32.12
2023-05-15T08:15:44.483Z,32.14
2023-05-15T08:16:44.433Z,32.20
2023-05-15T08:17:44.450Z,32.23
2023-05-15T08:18:44.397Z,32.21
2023-05-15T08:19:44.399Z,32.26
2023-05-15T08:20:44.374Z,32.32
2023-05-15T08:21:44.349Z,32.33
2023-05-15T08:22:44.322Z,32.34
2023-05-15T08:23:44.312Z,32.40
2023-05-15T08:24:44.279Z,32.38
2023-05-15T08:25:44.236Z,32.39
2023-05-15T08:26:44.215Z,32.40
2023-05-15T08:27:44.203Z,32.45
2023-05-15T08:28:44.183Z,32.45
2023-05-15T08:29:44.149Z,32.51
2023-05-15T08:30:44.129Z,32.58
2023-05-15T08:31:44.124Z,32.47
2023-05-15T08:32:44.141Z,32.46
2023-05-15T08:33:44.014Z,32.28
2023-05-15T08:34:43.983Z,32.29
2023-05-15T08:35:43.948Z,32.04
2023-05-15T08:36:43.930Z,31.92
2023-05-15T08:37:43.910Z,31.79
2023-05-15T08:38:43.863Z,31.54
2023-05-15T08:39:43.835Z,31.54
2023-05-15T08:40:43.834Z,31.49
2023-05-15T08:41:43.807Z,31.40
2023-05-15T08:42:43.813Z,31.32
2023-05-15T08:43:43.857Z,31.30
2023-05-15T08:44:43.819Z,31.24
2023-05-15T08:45:43.822Z,31.14
2023-05-15T08:46:43.865Z,31.07
2023-05-15T08:47:43.922Z,31.27
2023-05-15T08:48:43.869Z,31.61
2023-05-15T08:49:43.801Z,31.40
2023-05-15T08:50:43.768Z,31.22
2023-05-15T08:51:43.743Z,31.33
2023-05-15T08:52:43.780Z,31.31
2023-05-15T08:53:43.723Z,31.35
2023-05-15T08:54:44.649Z,31.51
2023-05-15T08:55:43.684Z,31.58
2023-05-15T08:56:43.677Z,31.38
2023-05-15T08:57:43.664Z,31.33
2023-05-15T08:58:43.617Z,31.43
2023-05-15T08:59:43.602Z,31.05
2023-05-15T09:00:43.609Z,31.38
2023-05-15T09:01:43.590Z,31.06
2023-05-15T09:02:43.615Z,30.66
2023-05-15T09:03:43.555Z,30.47
2023-05-15T09:04:43.502Z,30.30
2023-05-15T09:05:43.473Z,30.24
2023-05-15T09:06:43.457Z,30.50
2023-05-15T09:07:43.447Z,30.90
2023-05-15T09:08:43.427Z,30.76
2023-05-15T09:09:43.427Z,30.78
2023-05-15T09:10:43.394Z,30.97
2023-05-15T09:11:43.386Z,31.14
2023-05-15T09:12:43.349Z,31.10
2023-05-15T09:13:43.342Z,31.24
2023-05-15T09:14:43.302Z,31.31
2023-05-15T09:15:43.298Z,31.50
2023-05-15T09:16:43.345Z,31.58
2023-05-15T09:17:43.387Z,31.61
2023-05-15T09:18:43.273Z,31.67
2023-05-15T09:19:43.223Z,31.61
2023-05-15T09:20:43.199Z,31.62
2023-05-15T09:21:43.177Z,31.50
2023-05-15T09:22:43.165Z,31.54
2023-05-15T09:23:43.132Z,31.56
2023-05-15T09:24:43.112Z,31.53
2023-05-15T09:25:43.094Z,31.41
2023-05-15T09:26:43.072Z,31.55
2023-05-15T09:27:43.078Z,31.50
2023-05-15T09:28:43.098Z,31.58
2023-05-15T09:29:43.044Z,31.56
2023-05-15T09:30:42.954Z,31.55
2023-05-15T09:31:42.999Z,31.64
2023-05-15T09:32:42.955Z,31.61
2023-05-15T09:33:42.877Z,31.61
2023-05-15T09:34:42.874Z,31.59
2023-05-15T09:35:42.826Z,31.61
2023-05-15T09:36:42.791Z,31.68
2023-05-15T09:37:42.768Z,31.69
2023-05-15T09:38:42.728Z,31.63
2023-05-15T09:39:42.698Z,31.69
2023-05-15T09:40:42.686Z,31.75
2023-05-15T09:41:42.636Z,31.66
2023-05-15T09:42:42.656Z,31.87
2023-05-15T09:43:42.589Z,31.76
2023-05-15T09:44:42.560Z,31.85
2023-05-15T09:45:42.551Z,31.93
2023-05-15T09:46:42.597Z,31.92
2023-05-15T09:47:42.547Z,32.05
2023-05-15T09:48:42.569Z,32.12
2023-05-15T09:49:42.443Z,32.28
2023-05-15T09:50:42.411Z,32.33
2023-05-15T09:51:42.380Z,32.49
2023-05-15T09:52:42.389Z,32.77
2023-05-15T09:53:42.328Z,32.98
2023-05-15T09:54:42.287Z,33.02
2023-05-15T09:55:42.250Z,33.24
2023-05-15T09:56:42.222Z,33.19
2023-05-15T09:57:42.197Z,33.19
2023-05-15T09:58:42.203Z,33.13
2023-05-15T09:59:42.154Z,33.18
2023-05-15T10:00:48.725Z,33.12
2023-05-15T10:01:42.130Z,33.12
2023-05-15T10:02:42.124Z,33.14
2023-05-15T10:03:42.054Z,33.12
2023-05-15T10:04:42.010Z,33.11
2023-05-15T10:05:43.712Z,33.09
2023-05-15T10:06:43.128Z,33.10
2023-05-15T10:07:41.889Z,33.10
2023-05-15T10:08:41.856Z,33.12
2023-05-15T10:09:41.806Z,33.21
2023-05-15T10:10:41.762Z,33.12
2023-05-15T10:11:41.761Z,33.08
2023-05-15T10:12:41.804Z,33.13
2023-05-15T10:13:41.851Z,33.08
2023-05-15T10:14:41.851Z,32.98
2023-05-15T10:15:41.892Z,32.88
2023-05-15T10:16:42.166Z,32.78
2023-05-15T10:17:41.970Z,32.83
2023-05-15T10:18:41.987Z,32.78
2023-05-15T10:19:56.653Z,32.82
2023-05-15T10:20:42.918Z,32.83
2023-05-15T10:21:41.885Z,32.86
2023-05-15T10:22:41.844Z,32.94
2023-05-15T10:23:41.813Z,33.05
2023-05-15T10:24:41.751Z,33.18
2023-05-15T10:25:41.719Z,33.10
2023-05-15T10:26:41.693Z,33.13
2023-05-15T10:27:41.653Z,33.15
2023-05-15T10:28:43.506Z,33.17
2023-05-15T10:29:41.595Z,33.21
2023-05-15T10:30:41.519Z,33.30
2023-05-15T10:31:41.577Z,33.36
2023-05-15T10:32:41.536Z,33.48
2023-05-15T10:33:41.419Z,33.36
2023-05-15T10:34:41.377Z,33.29
2023-05-15T10:35:41.353Z,33.15
2023-05-15T10:36:41.321Z,32.94
2023-05-15T10:37:41.291Z,32.29
2023-05-15T10:38:41.235Z,32.48
2023-05-15T10:39:41.199Z,30.82
2023-05-15T10:40:41.197Z,30.38
2023-05-15T10:41:41.158Z,31.20
2023-05-15T10:42:41.137Z,30.71
2023-05-15T10:43:41.081Z,31.12
2023-05-15T10:44:41.049Z,31.32
2023-05-15T10:45:41.006Z,31.21
2023-05-15T10:46:41.019Z,31.33
2023-05-15T10:47:41.005Z,31.40
2023-05-15T10:48:40.937Z,31.41
2023-05-15T10:49:40.894Z,30.60
2023-05-15T10:50:40.868Z,30.82
2023-05-15T10:51:40.850Z,30.87
2023-05-15T10:52:40.804Z,30.93
2023-05-15T10:53:40.796Z,30.96
2023-05-15T10:54:40.738Z,30.60
2023-05-15T10:55:40.762Z,30.57
2023-05-15T10:56:40.676Z,29.94
2023-05-15T10:57:40.648Z,29.79
2023-05-15T10:58:40.614Z,28.65
2023-05-15T10:59:40.577Z,28.70
2023-05-15T11:00:40.552Z,28.81
2023-05-15T11:01:40.687Z,28.88
2023-05-15T11:02:40.528Z,28.83
2023-05-15T11:03:48.854Z,29.08
2023-05-15T11:04:41.553Z,29.14
2023-05-15T11:05:40.401Z,28.75
2023-05-15T11:06:40.376Z,28.61
2023-05-15T11:07:40.339Z,28.90
2023-05-15T11:08:40.316Z,29.07
2023-05-15T11:09:40.326Z,28.97
2023-05-15T11:10:40.258Z,28.81
2023-05-15T11:11:40.235Z,28.62
2023-05-15T11:12:40.188Z,28.58
2023-05-15T11:13:40.154Z,28.79
2023-05-15T11:14:40.131Z,29.23
2023-05-15T11:15:40.095Z,29.49
2023-05-15T11:16:40.082Z,29.62
2023-05-15T11:17:40.068Z,29.70
2023-05-15T11:18:40.059Z,29.98
2023-05-15T11:19:39.980Z,30.07
2023-05-15T11:20:39.935Z,30.18
2023-05-15T11:21:39.906Z,30.24
2023-05-15T11:22:39.884Z,30.32
2023-05-15T11:23:39.875Z,30.33
2023-05-15T11:24:39.819Z,30.38
2023-05-15T11:25:39.824Z,30.41
2023-05-15T11:26:39.741Z,30.46
2023-05-15T11:27:39.707Z,30.50
2023-05-15T11:28:39.680Z,30.53
2023-05-15T11:29:39.639Z,30.57
2023-05-15T11:30:39.719Z,30.65
2023-05-15T11:31:39.595Z,30.58
2023-05-15T11:32:39.611Z,30.48
2023-05-15T11:33:39.518Z,30.16
2023-05-15T11:34:39.510Z,30.07
2023-05-15T11:35:39.457Z,29.98
2023-05-15T11:36:39.425Z,29.75
2023-05-15T11:37:39.374Z,29.62
2023-05-15T11:38:39.347Z,31.98
2023-05-15T11:39:39.316Z,29.92
2023-05-15T11:40:39.259Z,30.17
2023-05-15T11:41:39.232Z,30.19
2023-05-15T11:42:39.182Z,30.12
2023-05-15T11:43:39.176Z,30.07
2023-05-15T11:44:39.178Z,30.09
2023-05-15T11:45:39.231Z,30.01
2023-05-15T11:46:39.323Z,29.93
2023-05-15T11:47:39.284Z,29.94
2023-05-15T11:48:39.300Z,29.92
2023-05-15T11:49:39.335Z,29.89
2023-05-15T11:50:39.362Z,29.86
2023-05-15T11:51:39.378Z,29.91
2023-05-15T11:52:39.405Z,29.72
2023-05-15T11:53:39.438Z,29.74
2023-05-15T11:54:39.451Z,29.68
2023-05-15T11:55:39.485Z,29.80
2023-05-15T11:56:39.515Z,29.95
2023-05-15T11:57:39.545Z,29.90
2023-05-15T11:58:39.514Z,29.93
2023-05-15T11:59:39.469Z,29.89
2023-05-15T12:00:39.432Z,29.95
2023-05-15T12:01:39.399Z,29.88
2023-05-15T12:02:39.499Z,29.82
2023-05-15T12:03:39.553Z,29.68
2023-05-15T12:04:39.326Z,29.72
2023-05-15T12:05:47.155Z,29.87
2023-05-15T12:06:40.213Z,29.89
2023-05-15T12:07:39.156Z,29.87
2023-05-15T12:08:39.135Z,29.76
2023-05-15T12:09:39.094Z,29.77
2023-05-15T12:10:39.060Z,29.55
2023-05-15T12:11:39.028Z,29.58
2023-05-15T12:12:38.972Z,29.74
2023-05-15T12:13:38.944Z,29.49
2023-05-15T12:14:38.901Z,29.68
2023-05-15T12:15:38.888Z,29.77
2023-05-15T12:16:39.018Z,29.79
2023-05-15T12:17:39.024Z,29.66
2023-05-15T12:18:38.980Z,29.66
2023-05-15T12:19:38.859Z,29.48
2023-05-15T12:20:38.827Z,29.43
2023-05-15T12:21:38.771Z,29.38
2023-05-15T12:22:38.753Z,29.33
2023-05-15T12:23:38.711Z,29.44
2023-05-15T12:24:38.681Z,29.47
2023-05-15T12:25:38.649Z,29.40
2023-05-15T12:26:38.614Z,29.28
2023-05-15T12:27:38.583Z,29.40
2023-05-15T12:28:38.626Z,29.30
2023-05-15T12:29:38.632Z,29.44
2023-05-15T12:30:38.694Z,29.09
2023-05-15T12:31:38.722Z,29.14
2023-05-15T12:32:38.788Z,29.03
2023-05-15T12:33:38.742Z,29.30
2023-05-15T12:34:38.733Z,29.40
2023-05-15T12:35:38.741Z,29.43
2023-05-15T12:36:38.776Z,29.46
2023-05-15T12:37:38.800Z,29.48
2023-05-15T12:38:38.835Z,29.46
2023-05-15T12:39:38.846Z,29.47
2023-05-15T12:40:38.882Z,29.46
2023-05-15T12:41:38.924Z,29.43
2023-05-15T12:42:38.943Z,29.42
2023-05-15T12:43:38.961Z,29.36
2023-05-15T12:44:38.979Z,29.35
2023-05-15T12:45:39.038Z,29.36
2023-05-15T12:46:39.129Z,29.36
2023-05-15T12:47:39.100Z,29.32
2023-05-15T12:48:39.092Z,29.32
2023-05-15T12:49:39.100Z,29.30
2023-05-15T12:50:39.124Z,29.29
2023-05-15T12:51:39.136Z,29.27
2023-05-15T12:52:39.180Z,29.29